X  Zamknij Lotniskowe dane METAR     LGRX Patras Araxos Agamemnon Airport
Temperatura
25°C Temperatura
21°C Punkt rosy
79% Wilgotność



Wiatr
2 M/S
5 MPH
8 KM/H
4 KTS



260°
W
Warunki bieżące

Lekkie zachmurzenie Lekkie zachmurzenie
Ciśnienie 1010.84 (hPa) - 29.85 (inHg)
Widoczność 6 (mil) - 9.7 (km)
Lotnisko
Kod lotniska LGRX

Położenie: Patras Araxos Agamemnon Airport
Odległość: 108 (km)

Metar:
LGRX 140450Z 26004KT 9999 SCT080 25/21 Q1011 RMK BKN200 BLU

Czas: 14-06-2024 07:50 EEST